Liberty — WDD6569 — position and weather

sailwx.info

Track history (hours):
 
Tides and Currents Weather Stations Pressure Air Temp Water Temp Dewpoint Dewpoint Depression Visibility Wind Speed Wind Dir Waves Ship Positions

Liberty

Owner: Tampa Tugs Three, LLC, Tampa, FL. More information available from US FCC via Universal Licensing System and Coast Guard Vessel Documentation Center.

Last reported at 2017-Dec-18 03:26 UTC. Time now 2017-Dec-18 05:24 UTC.
Position N 27°42' W 082°33'.

Length 29 m.

Type: Tug. MMSI: 367174670.

Date/timePositionNaut miles runAvg speedWind from/ knotsBaromVisibWave heightAir tempDewpointWater temp
2017-Dec-18 03:26N 27°42' W 082°33'510.6
2017-Dec-18 03:00N 27°46' W 082°31'510.1
2017-Dec-18 02:30N 27°50' W 082°27'510.6
2017-Dec-18 02:01N 27°55' W 082°26'1 2.6
2017-Dec-18 01:30N 27°56' W 082°26'0 0.0
2017-Dec-18 01:00N 27°56' W 082°26'0 0.0
2017-Dec-18 00:30N 27°56' W 082°26'0 0.0
2017-Dec-18 00:00N 27°56' W 082°26'0 0.0
2017-Dec-17 23:30N 27°56' W 082°26'0 0.0
2017-Dec-17 23:00N 27°56' W 082°26'0 0.0
2017-Dec-17 22:30N 27°56' W 082°26'0 0.0
2017-Dec-17 22:00N 27°56' W 082°26'0 0.0
2017-Dec-17 21:30N 27°56' W 082°26'0 0.0
2017-Dec-17 21:00N 27°56' W 082°26'0 0.0
2017-Dec-17 20:30N 27°56' W 082°26'0 0.0
2017-Dec-17 20:00N 27°56' W 082°26'0 0.0
2017-Dec-17 19:30N 27°56' W 082°26'0 0.0
2017-Dec-17 19:00N 27°56' W 082°26'0 0.0
2017-Dec-17 18:30N 27°56' W 082°26'0 0.0
2017-Dec-17 18:00N 27°56' W 082°26'0 0.0
2017-Dec-17 17:30N 27°56' W 082°26'0 0.0
2017-Dec-17 17:00N 27°56' W 082°26'0 0.0
2017-Dec-17 16:30N 27°56' W 082°26'0 0.0
2017-Dec-17 16:00N 27°56' W 082°26'0 0.0
2017-Dec-17 15:30N 27°56' W 082°26'0 0.0
2017-Dec-17 15:00N 27°56' W 082°26'0 0.0
2017-Dec-17 14:30N 27°56' W 082°26'0 0.0
2017-Dec-17 14:00N 27°56' W 082°26'0 0.0
2017-Dec-17 13:30N 27°56' W 082°26'0 0.0
2017-Dec-17 13:00N 27°56' W 082°26'0 0.0
2017-Dec-17 12:30N 27°56' W 082°26'0 0.0
2017-Dec-17 12:00N 27°56' W 082°26'0 0.0
2017-Dec-17 11:30N 27°56' W 082°26'0 0.0
2017-Dec-17 11:00N 27°56' W 082°26'0 0.0
2017-Dec-17 10:30N 27°56' W 082°26'1 1.9
2017-Dec-17 10:00N 27°55' W 082°26'2 4.2
2017-Dec-17 09:30N 27°57' W 082°27'0 0.0
2017-Dec-17 09:00N 27°57' W 082°27'1 1.3
2017-Dec-17 08:30N 27°56' W 082°27'2 4.3
2017-Dec-17 08:00N 27°54' W 082°26'510.0
2017-Dec-17 07:29N 27°49' W 082°27'511.2
2017-Dec-17 07:00N 27°47' W 082°33'4 8.8
2017-Dec-17 06:30N 27°52' W 082°33'0 0.7
2017-Dec-17 06:00N 27°52' W 082°33'0 0.0
2017-Dec-17 05:30N 27°52' W 082°33'4 8.6
2017-Dec-17 05:00N 27°47' W 082°34'510.7
2017-Dec-17 04:30N 27°48' W 082°28'510.5
2017-Dec-17 04:00N 27°53' W 082°26'3 5.8
2017-Dec-17 03:30N 27°56' W 082°26'0 0.0
2017-Dec-17 03:00N 27°56' W 082°26'0 0.0
2017-Dec-17 02:30N 27°56' W 082°26'0 0.0
2017-Dec-17 02:00N 27°56' W 082°26'0 0.0
2017-Dec-17 01:30N 27°56' W 082°26'0 0.0
2017-Dec-17 01:00N 27°56' W 082°26'0 0.0
2017-Dec-17 00:30N 27°56' W 082°26'0 0.0
2017-Dec-17 00:00N 27°56' W 082°26'0 0.0
2017-Dec-16 23:30N 27°56' W 082°26'0 0.0
2017-Dec-16 23:00N 27°56' W 082°26'1 2.6
2017-Dec-16 22:30N 27°55' W 082°26'0 0.7
2017-Dec-16 22:00N 27°54' W 082°26'0 0.2
2017-Dec-16 21:30N 27°54' W 082°26'2 3.2
2017-Dec-16 21:00N 27°53' W 082°27'3 5.5
2017-Dec-16 20:30N 27°50' W 082°27'4 8.0
2017-Dec-16 20:00N 27°47' W 082°30'5 9.6
2017-Dec-16 19:30N 27°43' W 082°32'5 1.1
2017-Dec-16 15:19N 27°46' W 082°37'3 8.9
2017-Dec-16 15:00N 27°48' W 082°34'4 8.5
2017-Dec-16 14:30N 27°52' W 082°33'0 0.5
2017-Dec-16 14:01N 27°52' W 082°33'2 3.7
2017-Dec-16 13:30N 27°50' W 082°34'1 2.7
2017-Dec-16 13:00N 27°49' W 082°34'6 0.6
2017-Dec-16 03:28N 27°43' W 082°33'510.4
2017-Dec-16 03:00N 27°47' W 082°31'5 9.8
2017-Dec-16 02:30N 27°50' W 082°27'5 9.9
2017-Dec-16 02:00N 27°55' W 082°26'1 1.7
2017-Dec-16 01:30N 27°56' W 082°26'0 0.0
2017-Dec-16 01:00N 27°56' W 082°26'0 0.0
2017-Dec-16 00:30N 27°56' W 082°26'0 0.0
2017-Dec-16 00:00N 27°56' W 082°26'0 0.0
2017-Dec-15 23:30N 27°56' W 082°26'0 0.0
2017-Dec-15 23:00N 27°56' W 082°26'0 0.0
2017-Dec-15 22:30N 27°56' W 082°26'0 0.0
2017-Dec-15 22:00N 27°56' W 082°26'0 0.0
2017-Dec-15 21:30N 27°56' W 082°26'0 0.0
2017-Dec-15 21:00N 27°56' W 082°26'0 0.0
2017-Dec-15 20:30N 27°56' W 082°26'0 0.0
2017-Dec-15 20:00N 27°56' W 082°26'0 0.0
2017-Dec-15 19:30N 27°56' W 082°26'0 0.0
2017-Dec-15 19:00N 27°56' W 082°26'0 0.0
2017-Dec-15 18:30N 27°56' W 082°26'0 0.0
2017-Dec-15 18:00N 27°56' W 082°26'0 0.0
2017-Dec-15 17:30N 27°56' W 082°26'0 0.0
2017-Dec-15 17:00N 27°56' W 082°26'0 0.0
2017-Dec-15 16:30N 27°56' W 082°26'0 0.0
2017-Dec-15 16:00N 27°56' W 082°26'0 0.0
2017-Dec-15 15:30N 27°56' W 082°26'0 0.0
2017-Dec-15 15:00N 27°56' W 082°26'0 0.0
2017-Dec-15 14:30N 27°56' W 082°26'0 0.0
2017-Dec-15 14:00N 27°56' W 082°26'0 0.0
2017-Dec-15 13:30N 27°56' W 082°26'0 0.0
2017-Dec-15 13:00N 27°56' W 082°26'0 0.0
2017-Dec-15 12:30N 27°56' W 082°26'0 0.0
2017-Dec-15 12:00N 27°56' W 082°26'0 0.0
2017-Dec-15 11:30N 27°56' W 082°26'0 0.0
2017-Dec-15 11:00N 27°56' W 082°26'0 0.8
2017-Dec-15 10:31N 27°56' W 082°26'1 2.2
2017-Dec-15 10:00N 27°55' W 082°27'0 0.0
2017-Dec-15 09:30N 27°55' W 082°27'0 0.6
2017-Dec-15 09:00N 27°55' W 082°27'0 0.1
2017-Dec-15 08:30N 27°55' W 082°27'0 0.8
2017-Dec-15 08:00N 27°55' W 082°27'2 3.7
2017-Dec-15 07:30N 27°53' W 082°26'3 6.3
2017-Dec-15 07:00N 27°56' W 082°26'0 0.0
2017-Dec-15 06:30N 27°56' W 082°26'0 0.0
2017-Dec-15 06:00N 27°56' W 082°26'0 0.0
2017-Dec-15 05:30N 27°56' W 082°26'0 0.0
2017-Dec-15 05:00N 27°56' W 082°26'0 0.0
2017-Dec-15 04:30N 27°56' W 082°26'0 0.0
2017-Dec-15 04:00N 27°56' W 082°26'0 0.0
2017-Dec-15 02:30N 27°56' W 082°26'0 0.0
2017-Dec-15 01:00N 27°56' W 082°26'0 0.0
2017-Dec-15 00:30N 27°56' W 082°26'0 0.0
2017-Dec-14 18:31N 27°56' W 082°26'0 0.0
2017-Dec-14 18:00N 27°56' W 082°26'0 0.0
2017-Dec-14 17:30N 27°56' W 082°26'0 0.0
2017-Dec-14 17:00N 27°56' W 082°26'0 0.0
2017-Dec-14 16:30N 27°56' W 082°26'0 0.0
2017-Dec-14 16:00N 27°56' W 082°26'0 0.0
2017-Dec-14 15:00N 27°56' W 082°26'1 2.1
2017-Dec-14 14:30N 27°55' W 082°26'510.8
2017-Dec-14 14:00N 27°50' W 082°27'510.4
2017-Dec-14 13:30N 27°46' W 082°31'1 0.2
2017-Dec-14 09:11N 27°46' W 082°31'210.0
2017-Dec-14 09:00N 27°47' W 082°31'5 9.9
2017-Dec-14 08:30N 27°51' W 082°27'4 7.4
2017-Dec-14 08:00N 27°54' W 082°26'0 0.0
2017-Dec-14 07:30N 27°54' W 082°26'0 0.0
2017-Dec-14 07:00N 27°54' W 082°26'0 0.0
2017-Dec-14 06:30N 27°54' W 082°26'0 0.0
2017-Dec-14 06:00N 27°54' W 082°26'0 0.0
2017-Dec-14 05:30N 27°54' W 082°26'0 0.0
2017-Dec-14 05:00N 27°54' W 082°26'0 0.0
2017-Dec-14 04:30N 27°54' W 082°26'0 0.0
2017-Dec-14 04:00N 27°54' W 082°26'0 0.0
2017-Dec-14 03:30N 27°54' W 082°26'0 0.0
2017-Dec-14 03:00N 27°54' W 082°26'0 0.0
2017-Dec-14 02:30N 27°54' W 082°26'1 1.7
2017-Dec-14 02:00N 27°55' W 082°27'2 3.3
2017-Dec-14 01:30N 27°56' W 082°27'0 0.9
2017-Dec-14 01:00N 27°57' W 082°27'1 2.0
2017-Dec-14 00:30N 27°56' W 082°27'1 1.6
2017-Dec-14 00:00N 27°55' W 082°27'1 2.5
2017-Dec-13 23:30N 27°54' W 082°26'1 1.4
2017-Dec-13 23:00N 27°53' W 082°26'1 2.8
2017-Dec-13 22:30N 27°54' W 082°26'0 0.0
2017-Dec-13 22:00N 27°54' W 082°26'1 1.4
2017-Dec-13 21:30N 27°55' W 082°25'0 0.5
2017-Dec-13 21:01N 27°55' W 082°26'3 5.1
2017-Dec-13 20:30N 27°52' W 082°27'2 3.3
2017-Dec-13 20:00N 27°51' W 082°26'2 4.5
2017-Dec-13 19:30N 27°51' W 082°23'0 0.0
2017-Dec-13 18:02N 27°51' W 082°24'0 5.3
2017-Dec-13 18:00N 27°51' W 082°24'3 5.3
2017-Dec-13 17:30N 27°52' W 082°27'3 6.5
2017-Dec-13 17:00N 27°55' W 082°26'0 0.0
2017-Dec-13 16:30N 27°55' W 082°26'0 0.8
2017-Dec-13 16:00N 27°55' W 082°25'1 1.7
2017-Dec-13 15:30N 27°54' W 082°26'2 3.3
2017-Dec-13 15:00N 27°53' W 082°27'2 4.9
2017-Dec-13 14:30N 27°55' W 082°26'1 1.6
2017-Dec-13 14:00N 27°56' W 082°26'0 0.0
2017-Dec-13 13:30N 27°56' W 082°26'0 0.0
2017-Dec-13 13:00N 27°56' W 082°26'0 0.0
2017-Dec-13 12:30N 27°56' W 082°26'0 0.0
2017-Dec-13 12:00N 27°56' W 082°26'0 0.0
2017-Dec-13 11:30N 27°56' W 082°26'0 0.0
2017-Dec-13 11:00N 27°56' W 082°26'0 0.0
2017-Dec-13 10:30N 27°56' W 082°26'0 0.0
2017-Dec-13 10:00N 27°56' W 082°26'0 0.0
2017-Dec-13 09:30N 27°56' W 082°26'2 3.6
2017-Dec-13 09:00N 27°54' W 082°26'0 0.0
2017-Dec-13 08:30N 27°54' W 082°26'2 3.5
2017-Dec-13 08:00N 27°56' W 082°26'0 0.0
2017-Dec-13 07:30N 27°56' W 082°26'0 0.0
2017-Dec-13 07:00N 27°56' W 082°26'0 0.0
2017-Dec-13 06:30N 27°56' W 082°26'0 0.0
2017-Dec-13 06:00N 27°56' W 082°26'0 0.0
2017-Dec-13 05:30N 27°56' W 082°26'0 0.0
2017-Dec-13 05:00N 27°56' W 082°26'0 0.0
2017-Dec-13 04:30N 27°56' W 082°26'0 0.0
2017-Dec-13 04:00N 27°56' W 082°26'0 0.0
2017-Dec-13 03:30N 27°56' W 082°26'0 0.0
2017-Dec-13 03:00N 27°56' W 082°26'0 0.0
2017-Dec-13 02:30N 27°56' W 082°26'0 0.0
2017-Dec-13 02:00N 27°56' W 082°26'0 0.0
2017-Dec-13 01:30N 27°56' W 082°26'0 0.0
2017-Dec-13 01:00N 27°56' W 082°26'1 2.1
2017-Dec-13 00:30N 27°55' W 082°25'0 0.0
2017-Dec-13 00:00N 27°55' W 082°25'0 0.5
2017-Dec-12 23:30N 27°55' W 082°25'1 1.3
2017-Dec-12 23:01N 27°54' W 082°26'0 0.2
2017-Dec-12 22:30N 27°54' W 082°26'0 1.0
2017-Dec-12 22:01N 27°55' W 082°26'1 1.0
2017-Dec-12 21:30N 27°55' W 082°25'0 0.0
2017-Dec-12 21:00N 27°55' W 082°25'1 2.1
2017-Dec-12 20:30N 27°56' W 082°26'0 0.0
2017-Dec-12 20:00N 27°56' W 082°26'0 0.0
2017-Dec-12 19:30N 27°56' W 082°26'0 0.0
2017-Dec-12 19:00N 27°56' W 082°26'0 0.0
2017-Dec-12 18:30N 27°56' W 082°26'0 0.0
2017-Dec-12 18:00N 27°56' W 082°26'0 0.0
2017-Dec-12 17:30N 27°56' W 082°26'0 0.0
2017-Dec-12 17:00N 27°56' W 082°26'0 0.0
2017-Dec-12 16:30N 27°56' W 082°26'0 0.0
2017-Dec-12 16:00N 27°56' W 082°26'0 0.0
2017-Dec-12 15:30N 27°56' W 082°26'0 0.0
2017-Dec-12 15:00N 27°56' W 082°26'0 0.0
2017-Dec-12 14:30N 27°56' W 082°26'0 0.0
2017-Dec-12 14:00N 27°56' W 082°26'0 0.0
2017-Dec-12 13:30N 27°56' W 082°26'0 0.0
2017-Dec-12 13:00N 27°56' W 082°26'0 0.0
2017-Dec-12 12:30N 27°56' W 082°26'0 0.0
2017-Dec-12 12:00N 27°56' W 082°26'0 0.0
2017-Dec-12 11:30N 27°56' W 082°26'0 0.0
2017-Dec-12 11:00N 27°56' W 082°26'0 0.0
2017-Dec-12 10:30N 27°56' W 082°26'0 0.0
2017-Dec-12 10:00N 27°56' W 082°26'0 0.0
2017-Dec-12 09:30N 27°56' W 082°26'0 0.0
2017-Dec-12 09:00N 27°56' W 082°26'0 0.0
2017-Dec-12 08:30N 27°56' W 082°26'0 0.0
2017-Dec-12 08:00N 27°56' W 082°26'0 0.0
2017-Dec-12 07:30N 27°56' W 082°26'0 0.0
2017-Dec-12 07:00N 27°56' W 082°26'0 0.0
2017-Dec-12 06:30N 27°56' W 082°26'0 0.0
2017-Dec-12 06:00N 27°56' W 082°26'0 0.0
2017-Dec-12 05:30N 27°56' W 082°26'0 0.0
2017-Dec-12 05:00N 27°56' W 082°26'0 0.0
2017-Dec-12 04:30N 27°56' W 082°26'1 2.2
2017-Dec-12 04:00N 27°55' W 082°27'0 0.1
2017-Dec-12 03:30N 27°55' W 082°27'1 1.4
2017-Dec-12 03:00N 27°54' W 082°26'1 1.2
2017-Dec-12 02:30N 27°54' W 082°26'0 0.0
2017-Dec-12 02:00N 27°54' W 082°26'0 0.0
2017-Dec-12 01:30N 27°54' W 082°26'0 0.0
2017-Dec-12 01:00N 27°54' W 082°26'0 0.0
2017-Dec-12 00:30N 27°54' W 082°26'2 4.2
2017-Dec-12 00:00N 27°52' W 082°27'5 9.9
2017-Dec-11 23:30N 27°48' W 082°29'6 1.3
2017-Dec-11 19:08N 27°43' W 082°32'211.0
2017-Dec-11 18:59N 27°45' W 082°32'5 9.5
2017-Dec-11 18:30N 27°48' W 082°28'5 9.9
2017-Dec-11 18:00N 27°53' W 082°27'2 3.7
2017-Dec-11 17:30N 27°54' W 082°26'0 0.0
2017-Dec-11 17:00N 27°54' W 082°26'0 0.0
2017-Dec-11 16:30N 27°54' W 082°26'0 0.0
2017-Dec-11 16:00N 27°54' W 082°26'1 2.2
2017-Dec-11 15:30N 27°55' W 082°27'0 0.0
2017-Dec-11 15:00N 27°55' W 082°27'2 4.7
2017-Dec-11 14:30N 27°53' W 082°26'2 4.9
2017-Dec-11 14:00N 27°51' W 082°24'1 1.8
2017-Dec-11 13:30N 27°51' W 082°23'3 5.5
2017-Dec-11 13:00N 27°52' W 082°27'4 7.0
2017-Dec-11 12:30N 27°55' W 082°25'0 0.1
2017-Dec-11 12:00N 27°55' W 082°25'3 5.2
2017-Dec-11 11:30N 27°53' W 082°26'4 8.3
2017-Dec-11 11:00N 27°49' W 082°27'2 2.9
2017-Dec-11 10:22N 27°48' W 082°25'1 2.8
2017-Dec-11 10:00N 27°49' W 082°26'610.8
2017-Dec-11 09:29N 27°47' W 082°32'4 7.6
2017-Dec-11 09:00N 27°50' W 082°34'1 3.0
2017-Dec-11 08:30N 27°52' W 082°33'0 0.0
2017-Dec-11 08:00N 27°52' W 082°33'0 0.0
2017-Dec-11 07:30N 27°52' W 082°33'0 0.0
2017-Dec-11 07:00N 27°52' W 082°33'0 0.0
2017-Dec-11 06:30N 27°52' W 082°33'0 0.0
2017-Dec-11 06:00N 27°52' W 082°33'0 0.0
2017-Dec-11 05:30N 27°52' W 082°33'0 0.0
2017-Dec-11 05:00N 27°52' W 082°33'0 0.0
2017-Dec-11 04:30N 27°52' W 082°33'0 0.0
2017-Dec-11 04:00N 27°52' W 082°33'0 0.0
2017-Dec-11 03:30N 27°52' W 082°33'0 0.0
2017-Dec-11 03:00N 27°52' W 082°33'0 0.0
2017-Dec-11 02:30N 27°52' W 082°33'0 0.0
2017-Dec-11 02:00N 27°52' W 082°33'0 0.0
2017-Dec-11 01:30N 27°52' W 082°33'0 0.0
2017-Dec-11 01:00N 27°52' W 082°33'0 0.0
2017-Dec-11 00:30N 27°52' W 082°33'0 0.0
2017-Dec-11 00:00N 27°52' W 082°33'0 0.0
2017-Dec-10 23:30N 27°52' W 082°33'0 0.0
2017-Dec-10 23:00N 27°52' W 082°33'0 0.0
2017-Dec-10 22:30N 27°52' W 082°33'0 0.0
2017-Dec-10 22:00N 27°52' W 082°33'0 0.0
2017-Dec-10 21:30N 27°52' W 082°33'0 0.0
2017-Dec-10 21:00N 27°52' W 082°33'0 0.0
2017-Dec-10 20:30N 27°52' W 082°33'0 0.0
2017-Dec-10 20:00N 27°52' W 082°33'0 0.0
2017-Dec-10 19:30N 27°52' W 082°33'0 0.0
2017-Dec-10 19:00N 27°52' W 082°33'0 0.0
2017-Dec-10 18:30N 27°52' W 082°33'0 0.0
2017-Dec-10 18:00N 27°52' W 082°33'0 0.0
2017-Dec-10 17:30N 27°52' W 082°33'0 0.0
2017-Dec-10 17:00N 27°52' W 082°33'0 0.0
2017-Dec-10 16:30N 27°52' W 082°33'0 0.0
2017-Dec-10 16:00N 27°52' W 082°33'0 0.0
2017-Dec-10 15:30N 27°52' W 082°33'0 0.0
2017-Dec-10 15:00N 27°52' W 082°33'0 0.0
2017-Dec-10 14:30N 27°52' W 082°33'0 0.0
2017-Dec-10 14:00N 27°52' W 082°33'0 0.9
2017-Dec-10 13:30N 27°52' W 082°33'0 0.9
2017-Dec-10 13:00N 27°52' W 082°33'0 0.1
2017-Dec-10 12:30N 27°52' W 082°33'0 0.0
2017-Dec-10 12:00N 27°52' W 082°33'0 0.0
2017-Dec-10 11:30N 27°52' W 082°33'0 0.0
2017-Dec-10 11:00N 27°52' W 082°33'0 0.0
2017-Dec-10 10:31N 27°52' W 082°33'4 8.4
2017-Dec-10 09:59N 27°47' W 082°33'511.0
2017-Dec-10 09:30N 27°48' W 082°27'510.7
2017-Dec-10 09:00N 27°54' W 082°26'3 6.5
2017-Dec-10 08:30N 27°57' W 082°27'0 0.1
2017-Dec-10 08:01N 27°57' W 082°27'1 1.8
2017-Dec-10 07:31N 27°56' W 082°27'2 3.8
2017-Dec-10 07:00N 27°54' W 082°26'1 1.7
2017-Dec-10 06:30N 27°53' W 082°26'2 4.8
2017-Dec-10 06:00N 27°56' W 082°27'1 1.9
2017-Dec-10 05:30N 27°56' W 082°27'0 0.0
2017-Dec-10 05:00N 27°56' W 082°27'0 0.0
2017-Dec-10 04:30N 27°56' W 082°27'0 0.0
2017-Dec-10 04:00N 27°56' W 082°27'0 0.0
2017-Dec-10 03:30N 27°56' W 082°27'0 0.0
2017-Dec-10 03:00N 27°56' W 082°27'0 0.0
2017-Dec-10 02:30N 27°56' W 082°27'1 2.6
2017-Dec-10 02:00N 27°55' W 082°27'0 0.1
2017-Dec-10 01:30N 27°55' W 082°27'1 2.3
2017-Dec-10 01:00N 27°54' W 082°26'1 2.3
2017-Dec-10 00:30N 27°53' W 082°27'4 7.4
2017-Dec-10 00:00N 27°49' W 082°27'510.6
2017-Dec-09 23:30N 27°47' W 082°33'4 8.1
2017-Dec-09 23:00N 27°51' W 082°33'1 1.7
2017-Dec-09 22:30N 27°52' W 082°33'0 0.0
2017-Dec-09 22:00N 27°52' W 082°33'0 0.0
2017-Dec-09 21:30N 27°52' W 082°33'0 0.0
2017-Dec-09 21:00N 27°52' W 082°33'0 0.0
2017-Dec-09 20:30N 27°52' W 082°33'0 0.0
2017-Dec-09 20:00N 27°52' W 082°33'1 1.2
2017-Dec-09 19:30N 27°51' W 082°33'1 1.3
2017-Dec-09 19:00N 27°52' W 082°33'0 0.0
2017-Dec-09 18:30N 27°52' W 082°33'3 6.8
2017-Dec-09 18:01N 27°49' W 082°34'4 8.8
2017-Dec-09 17:30N 27°48' W 082°29'510.1
2017-Dec-09 17:00N 27°52' W 082°27'3 5.9
2017-Dec-09 16:30N 27°55' W 082°27'1 2.1
2017-Dec-09 16:00N 27°54' W 082°26'1 1.2
2017-Dec-09 15:31N 27°54' W 082°25'1 2.8
2017-Dec-09 15:00N 27°54' W 082°26'1 1.5
2017-Dec-09 14:30N 27°54' W 082°26'1 1.6
2017-Dec-09 14:00N 27°55' W 082°26'0 0.0
2017-Dec-09 13:30N 27°55' W 082°26'0 0.3
2017-Dec-09 13:00N 27°55' W 082°26'1 1.8
2017-Dec-09 12:30N 27°54' W 082°26'2 3.2
2017-Dec-09 12:01N 27°53' W 082°26'1 1.6
2017-Dec-09 11:30N 27°54' W 082°26'2 5.0
2017-Dec-09 11:00N 27°56' W 082°26'0 0.0
2017-Dec-09 10:30N 27°56' W 082°26'0 0.0
2017-Dec-09 10:00N 27°56' W 082°26'0 0.0
2017-Dec-09 09:30N 27°56' W 082°26'0 0.0
2017-Dec-09 09:00N 27°56' W 082°26'0 0.0
2017-Dec-09 08:30N 27°56' W 082°26'0 0.0
2017-Dec-09 08:00N 27°56' W 082°26'0 0.0
2017-Dec-09 07:30N 27°56' W 082°26'0 0.0
2017-Dec-09 07:00N 27°56' W 082°26'0 0.0
2017-Dec-09 06:30N 27°56' W 082°26'0 0.0
2017-Dec-09 06:00N 27°56' W 082°26'0 0.0
2017-Dec-09 05:30N 27°56' W 082°26'0 0.0
2017-Dec-09 05:00N 27°56' W 082°26'0 0.0
2017-Dec-09 04:30N 27°56' W 082°26'0 0.0
2017-Dec-09 04:00N 27°56' W 082°26'0 0.0
2017-Dec-09 03:30N 27°56' W 082°26'0 0.0
2017-Dec-09 03:00N 27°56' W 082°26'0 0.0
2017-Dec-09 02:30N 27°56' W 082°26'0 0.0
2017-Dec-09 02:00N 27°56' W 082°26'0 0.0
2017-Dec-09 01:30N 27°56' W 082°26'0 0.0
2017-Dec-09 01:00N 27°56' W 082°26'0 0.0
2017-Dec-09 00:30N 27°56' W 082°26'1 2.1
2017-Dec-09 00:00N 27°55' W 082°27'2 3.2
2017-Dec-08 23:31N 27°57' W 082°27'0 0.1
2017-Dec-08 23:00N 27°57' W 082°27'0 0.0
2017-Dec-08 22:30N 27°57' W 082°27'0 0.1
2017-Dec-08 22:00N 27°57' W 082°27'0 0.0
2017-Dec-08 21:30N 27°57' W 082°27'2 4.1
2017-Dec-08 21:00N 27°55' W 082°27'611.9
2017-Dec-08 20:29N 27°49' W 082°27'611.9
2017-Dec-08 19:59N 27°47' W 082°34'4 9.2
2017-Dec-08 19:30N 27°52' W 082°33'0 0.3
2017-Dec-08 18:59N 27°52' W 082°33'1 2.4
2017-Dec-08 18:30N 27°51' W 082°34'3 6.8
2017-Dec-08 18:01N 27°47' W 082°34'4 8.9
2017-Dec-08 17:30N 27°48' W 082°29'510.5
2017-Dec-08 17:00N 27°53' W 082°26'2 4.2
2017-Dec-08 16:30N 27°55' W 082°27'0 0.2
2017-Dec-08 16:00N 27°55' W 082°27'1 1.7
2017-Dec-08 15:30N 27°55' W 082°26'1 2.2
2017-Dec-08 15:00N 27°56' W 082°26'0 0.0
2017-Dec-08 14:30N 27°56' W 082°26'0 0.0
2017-Dec-08 14:00N 27°56' W 082°26'0 0.0
2017-Dec-08 13:30N 27°56' W 082°26'0 0.0
2017-Dec-08 13:00N 27°56' W 082°26'0 0.0
2017-Dec-08 12:30N 27°56' W 082°26'0 0.0
2017-Dec-08 12:00N 27°56' W 082°26'0 0.0
2017-Dec-08 11:30N 27°56' W 082°26'0 0.0
2017-Dec-08 11:00N 27°56' W 082°26'0 0.0
2017-Dec-08 10:30N 27°56' W 082°26'0 0.0
2017-Dec-08 10:00N 27°56' W 082°26'0 0.0
2017-Dec-08 09:30N 27°56' W 082°26'0 0.0
2017-Dec-08 09:00N 27°56' W 082°26'0 0.0
2017-Dec-08 08:30N 27°56' W 082°26'0 0.0
2017-Dec-08 08:00N 27°56' W 082°26'0 0.0
2017-Dec-08 07:30N 27°56' W 082°26'2 4.2
2017-Dec-08 07:00N 27°54' W 082°25'0 0.0
2017-Dec-08 06:30N 27°54' W 082°25'0 0.3
2017-Dec-08 06:01N 27°54' W 082°25'1 2.9
2017-Dec-08 05:30N 27°54' W 082°26'510.7
2017-Dec-08 05:00N 27°48' W 082°28'5 9.8
2017-Dec-08 04:30N 27°45' W 082°32'7 9.0
2017-Dec-08 03:45N 27°39' W 082°35'  
Track history (hours):
 
Tides and Currents Weather Stations Pressure Air Temp Water Temp Dewpoint Dewpoint Depression Visibility Wind Speed Wind Dir Waves Ship Positions

Liberty

Owner: Tampa Tugs Three, LLC, Tampa, FL. More information available from US FCC via Universal Licensing System and Coast Guard Vessel Documentation Center.

Last reported at 2017-Dec-18 03:26 UTC. Time now 2017-Dec-18 05:24 UTC.
Position N 27°42' W 082°33'.

Length 29 m.

Type: Tug. MMSI: 367174670.

Date/timePositionNaut miles runAvg speedWind from/ knotsBaromVisibWave heightAir tempDewpointWater temp
2017-Dec-18 03:26N 27°42' W 082°33'510.6
2017-Dec-18 03:00N 27°46' W 082°31'510.1
2017-Dec-18 02:30N 27°50' W 082°27'510.6
2017-Dec-18 02:01N 27°55' W 082°26'1 2.6
2017-Dec-18 01:30N 27°56' W 082°26'0 0.0
2017-Dec-18 01:00N 27°56' W 082°26'0 0.0
2017-Dec-18 00:30N 27°56' W 082°26'0 0.0
2017-Dec-18 00:00N 27°56' W 082°26'0 0.0
2017-Dec-17 23:30N 27°56' W 082°26'0 0.0
2017-Dec-17 23:00N 27°56' W 082°26'0 0.0
2017-Dec-17 22:30N 27°56' W 082°26'0 0.0
2017-Dec-17 22:00N 27°56' W 082°26'0 0.0
2017-Dec-17 21:30N 27°56' W 082°26'0 0.0
2017-Dec-17 21:00N 27°56' W 082°26'0 0.0
2017-Dec-17 20:30N 27°56' W 082°26'0 0.0
2017-Dec-17 20:00N 27°56' W 082°26'0 0.0
2017-Dec-17 19:30N 27°56' W 082°26'0 0.0
2017-Dec-17 19:00N 27°56' W 082°26'0 0.0
2017-Dec-17 18:30N 27°56' W 082°26'0 0.0
2017-Dec-17 18:00N 27°56' W 082°26'0 0.0
2017-Dec-17 17:30N 27°56' W 082°26'0 0.0
2017-Dec-17 17:00N 27°56' W 082°26'0 0.0
2017-Dec-17 16:30N 27°56' W 082°26'0 0.0
2017-Dec-17 16:00N 27°56' W 082°26'0 0.0
2017-Dec-17 15:30N 27°56' W 082°26'0 0.0
2017-Dec-17 15:00N 27°56' W 082°26'0 0.0
2017-Dec-17 14:30N 27°56' W 082°26'0 0.0
2017-Dec-17 14:00N 27°56' W 082°26'0 0.0
2017-Dec-17 13:30N 27°56' W 082°26'0 0.0
2017-Dec-17 13:00N 27°56' W 082°26'0 0.0
2017-Dec-17 12:30N 27°56' W 082°26'0 0.0
2017-Dec-17 12:00N 27°56' W 082°26'0 0.0
2017-Dec-17 11:30N 27°56' W 082°26'0 0.0
2017-Dec-17 11:00N 27°56' W 082°26'0 0.0
2017-Dec-17 10:30N 27°56' W 082°26'1 1.9
2017-Dec-17 10:00N 27°55' W 082°26'2 4.2
2017-Dec-17 09:30N 27°57' W 082°27'0 0.0
2017-Dec-17 09:00N 27°57' W 082°27'1 1.3
2017-Dec-17 08:30N 27°56' W 082°27'2 4.3
2017-Dec-17 08:00N 27°54' W 082°26'510.0
2017-Dec-17 07:29N 27°49' W 082°27'511.2
2017-Dec-17 07:00N 27°47' W 082°33'4 8.8
2017-Dec-17 06:30N 27°52' W 082°33'0 0.7
2017-Dec-17 06:00N 27°52' W 082°33'0 0.0
2017-Dec-17 05:30N 27°52' W 082°33'4 8.6
2017-Dec-17 05:00N 27°47' W 082°34'510.7
2017-Dec-17 04:30N 27°48' W 082°28'510.5
2017-Dec-17 04:00N 27°53' W 082°26'3 5.8
2017-Dec-17 03:30N 27°56' W 082°26'0 0.0
2017-Dec-17 03:00N 27°56' W 082°26'0 0.0
2017-Dec-17 02:30N 27°56' W 082°26'0 0.0
2017-Dec-17 02:00N 27°56' W 082°26'0 0.0
2017-Dec-17 01:30N 27°56' W 082°26'0 0.0
2017-Dec-17 01:00N 27°56' W 082°26'0 0.0
2017-Dec-17 00:30N 27°56' W 082°26'0 0.0
2017-Dec-17 00:00N 27°56' W 082°26'0 0.0
2017-Dec-16 23:30N 27°56' W 082°26'0 0.0
2017-Dec-16 23:00N 27°56' W 082°26'1 2.6
2017-Dec-16 22:30N 27°55' W 082°26'0 0.7
2017-Dec-16 22:00N 27°54' W 082°26'0 0.2
2017-Dec-16 21:30N 27°54' W 082°26'2 3.2
2017-Dec-16 21:00N 27°53' W 082°27'3 5.5
2017-Dec-16 20:30N 27°50' W 082°27'4 8.0
2017-Dec-16 20:00N 27°47' W 082°30'5 9.6
2017-Dec-16 19:30N 27°43' W 082°32'5 1.1
2017-Dec-16 15:19N 27°46' W 082°37'3 8.9
2017-Dec-16 15:00N 27°48' W 082°34'4 8.5
2017-Dec-16 14:30N 27°52' W 082°33'0 0.5
2017-Dec-16 14:01N 27°52' W 082°33'2 3.7
2017-Dec-16 13:30N 27°50' W 082°34'1 2.7
2017-Dec-16 13:00N 27°49' W 082°34'6 0.6
2017-Dec-16 03:28N 27°43' W 082°33'510.4
2017-Dec-16 03:00N 27°47' W 082°31'5 9.8
2017-Dec-16 02:30N 27°50' W 082°27'5 9.9
2017-Dec-16 02:00N 27°55' W 082°26'1 1.7
2017-Dec-16 01:30N 27°56' W 082°26'0 0.0
2017-Dec-16 01:00N 27°56' W 082°26'0 0.0
2017-Dec-16 00:30N 27°56' W 082°26'0 0.0
2017-Dec-16 00:00N 27°56' W 082°26'0 0.0
2017-Dec-15 23:30N 27°56' W 082°26'0 0.0
2017-Dec-15 23:00N 27°56' W 082°26'0 0.0
2017-Dec-15 22:30N 27°56' W 082°26'0 0.0
2017-Dec-15 22:00N 27°56' W 082°26'0 0.0
2017-Dec-15 21:30N 27°56' W 082°26'0 0.0
2017-Dec-15 21:00N 27°56' W 082°26'0 0.0
2017-Dec-15 20:30N 27°56' W 082°26'0 0.0
2017-Dec-15 20:00N 27°56' W 082°26'0 0.0
2017-Dec-15 19:30N 27°56' W 082°26'0 0.0
2017-Dec-15 19:00N 27°56' W 082°26'0 0.0
2017-Dec-15 18:30N 27°56' W 082°26'0 0.0
2017-Dec-15 18:00N 27°56' W 082°26'0 0.0
2017-Dec-15 17:30N 27°56' W 082°26'0 0.0
2017-Dec-15 17:00N 27°56' W 082°26'0 0.0
2017-Dec-15 16:30N 27°56' W 082°26'0 0.0
2017-Dec-15 16:00N 27°56' W 082°26'0 0.0
2017-Dec-15 15:30N 27°56' W 082°26'0 0.0
2017-Dec-15 15:00N 27°56' W 082°26'0 0.0
2017-Dec-15 14:30N 27°56' W 082°26'0 0.0
2017-Dec-15 14:00N 27°56' W 082°26'0 0.0
2017-Dec-15 13:30N 27°56' W 082°26'0 0.0
2017-Dec-15 13:00N 27°56' W 082°26'0 0.0
2017-Dec-15 12:30N 27°56' W 082°26'0 0.0
2017-Dec-15 12:00N 27°56' W 082°26'0 0.0
2017-Dec-15 11:30N 27°56' W 082°26'0 0.0
2017-Dec-15 11:00N 27°56' W 082°26'0 0.8
2017-Dec-15 10:31N 27°56' W 082°26'1 2.2
2017-Dec-15 10:00N 27°55' W 082°27'0 0.0
2017-Dec-15 09:30N 27°55' W 082°27'0 0.6
2017-Dec-15 09:00N 27°55' W 082°27'0 0.1
2017-Dec-15 08:30N 27°55' W 082°27'0 0.8
2017-Dec-15 08:00N 27°55' W 082°27'2 3.7
2017-Dec-15 07:30N 27°53' W 082°26'3 6.3
2017-Dec-15 07:00N 27°56' W 082°26'0 0.0
2017-Dec-15 06:30N 27°56' W 082°26'0 0.0
2017-Dec-15 06:00N 27°56' W 082°26'0 0.0
2017-Dec-15 05:30N 27°56' W 082°26'0 0.0
2017-Dec-15 05:00N 27°56' W 082°26'0 0.0
2017-Dec-15 04:30N 27°56' W 082°26'0 0.0
2017-Dec-15 04:00N 27°56' W 082°26'0 0.0
2017-Dec-15 02:30N 27°56' W 082°26'0 0.0
2017-Dec-15 01:00N 27°56' W 082°26'0 0.0
2017-Dec-15 00:30N 27°56' W 082°26'0 0.0
2017-Dec-14 18:31N 27°56' W 082°26'0 0.0
2017-Dec-14 18:00N 27°56' W 082°26'0 0.0
2017-Dec-14 17:30N 27°56' W 082°26'0 0.0
2017-Dec-14 17:00N 27°56' W 082°26'0 0.0
2017-Dec-14 16:30N 27°56' W 082°26'0 0.0
2017-Dec-14 16:00N 27°56' W 082°26'0 0.0
2017-Dec-14 15:00N 27°56' W 082°26'1 2.1
2017-Dec-14 14:30N 27°55' W 082°26'510.8
2017-Dec-14 14:00N 27°50' W 082°27'510.4
2017-Dec-14 13:30N 27°46' W 082°31'1 0.2
2017-Dec-14 09:11N 27°46' W 082°31'210.0
2017-Dec-14 09:00N 27°47' W 082°31'5 9.9
2017-Dec-14 08:30N 27°51' W 082°27'4 7.4
2017-Dec-14 08:00N 27°54' W 082°26'0 0.0
2017-Dec-14 07:30N 27°54' W 082°26'0 0.0
2017-Dec-14 07:00N 27°54' W 082°26'0 0.0
2017-Dec-14 06:30N 27°54' W 082°26'0 0.0
2017-Dec-14 06:00N 27°54' W 082°26'0 0.0
2017-Dec-14 05:30N 27°54' W 082°26'0 0.0
2017-Dec-14 05:00N 27°54' W 082°26'0 0.0
2017-Dec-14 04:30N 27°54' W 082°26'0 0.0
2017-Dec-14 04:00N 27°54' W 082°26'0 0.0
2017-Dec-14 03:30N 27°54' W 082°26'0 0.0
2017-Dec-14 03:00N 27°54' W 082°26'0 0.0
2017-Dec-14 02:30N 27°54' W 082°26'1 1.7
2017-Dec-14 02:00N 27°55' W 082°27'2 3.3
2017-Dec-14 01:30N 27°56' W 082°27'0 0.9
2017-Dec-14 01:00N 27°57' W 082°27'1 2.0
2017-Dec-14 00:30N 27°56' W 082°27'1 1.6
2017-Dec-14 00:00N 27°55' W 082°27'1 2.5
2017-Dec-13 23:30N 27°54' W 082°26'1 1.4
2017-Dec-13 23:00N 27°53' W 082°26'1 2.8
2017-Dec-13 22:30N 27°54' W 082°26'0 0.0
2017-Dec-13 22:00N 27°54' W 082°26'1 1.4
2017-Dec-13 21:30N 27°55' W 082°25'0 0.5
2017-Dec-13 21:01N 27°55' W 082°26'3 5.1
2017-Dec-13 20:30N 27°52' W 082°27'2 3.3
2017-Dec-13 20:00N 27°51' W 082°26'2 4.5
2017-Dec-13 19:30N 27°51' W 082°23'0 0.0
2017-Dec-13 18:02N 27°51' W 082°24'0 5.3
2017-Dec-13 18:00N 27°51' W 082°24'3 5.3
2017-Dec-13 17:30N 27°52' W 082°27'3 6.5
2017-Dec-13 17:00N 27°55' W 082°26'0 0.0
2017-Dec-13 16:30N 27°55' W 082°26'0 0.8
2017-Dec-13 16:00N 27°55' W 082°25'1 1.7
2017-Dec-13 15:30N 27°54' W 082°26'2 3.3
2017-Dec-13 15:00N 27°53' W 082°27'2 4.9
2017-Dec-13 14:30N 27°55' W 082°26'1 1.6
2017-Dec-13 14:00N 27°56' W 082°26'0 0.0
2017-Dec-13 13:30N 27°56' W 082°26'0 0.0
2017-Dec-13 13:00N 27°56' W 082°26'0 0.0
2017-Dec-13 12:30N 27°56' W 082°26'0 0.0
2017-Dec-13 12:00N 27°56' W 082°26'0 0.0
2017-Dec-13 11:30N 27°56' W 082°26'0 0.0
2017-Dec-13 11:00N 27°56' W 082°26'0 0.0
2017-Dec-13 10:30N 27°56' W 082°26'0 0.0
2017-Dec-13 10:00N 27°56' W 082°26'0 0.0
2017-Dec-13 09:30N 27°56' W 082°26'2 3.6
2017-Dec-13 09:00N 27°54' W 082°26'0 0.0
2017-Dec-13 08:30N 27°54' W 082°26'2 3.5
2017-Dec-13 08:00N 27°56' W 082°26'0 0.0
2017-Dec-13 07:30N 27°56' W 082°26'0 0.0
2017-Dec-13 07:00N 27°56' W 082°26'0 0.0
2017-Dec-13 06:30N 27°56' W 082°26'0 0.0
2017-Dec-13 06:00N 27°56' W 082°26'0 0.0
2017-Dec-13 05:30N 27°56' W 082°26'0 0.0
2017-Dec-13 05:00N 27°56' W 082°26'0 0.0
2017-Dec-13 04:30N 27°56' W 082°26'0 0.0
2017-Dec-13 04:00N 27°56' W 082°26'0 0.0
2017-Dec-13 03:30N 27°56' W 082°26'0 0.0
2017-Dec-13 03:00N 27°56' W 082°26'0 0.0
2017-Dec-13 02:30N 27°56' W 082°26'0 0.0
2017-Dec-13 02:00N 27°56' W 082°26'0 0.0
2017-Dec-13 01:30N 27°56' W 082°26'0 0.0
2017-Dec-13 01:00N 27°56' W 082°26'1 2.1
2017-Dec-13 00:30N 27°55' W 082°25'0 0.0
2017-Dec-13 00:00N 27°55' W 082°25'0 0.5
2017-Dec-12 23:30N 27°55' W 082°25'1 1.3
2017-Dec-12 23:01N 27°54' W 082°26'0 0.2
2017-Dec-12 22:30N 27°54' W 082°26'0 1.0
2017-Dec-12 22:01N 27°55' W 082°26'1 1.0
2017-Dec-12 21:30N 27°55' W 082°25'0 0.0
2017-Dec-12 21:00N 27°55' W 082°25'1 2.1
2017-Dec-12 20:30N 27°56' W 082°26'0 0.0
2017-Dec-12 20:00N 27°56' W 082°26'0 0.0
2017-Dec-12 19:30N 27°56' W 082°26'0 0.0
2017-Dec-12 19:00N 27°56' W 082°26'0 0.0
2017-Dec-12 18:30N 27°56' W 082°26'0 0.0
2017-Dec-12 18:00N 27°56' W 082°26'0 0.0
2017-Dec-12 17:30N 27°56' W 082°26'0 0.0
2017-Dec-12 17:00N 27°56' W 082°26'0 0.0
2017-Dec-12 16:30N 27°56' W 082°26'0 0.0
2017-Dec-12 16:00N 27°56' W 082°26'0 0.0
2017-Dec-12 15:30N 27°56' W 082°26'0 0.0
2017-Dec-12 15:00N 27°56' W 082°26'0 0.0
2017-Dec-12 14:30N 27°56' W 082°26'0 0.0
2017-Dec-12 14:00N 27°56' W 082°26'0 0.0
2017-Dec-12 13:30N 27°56' W 082°26'0 0.0
2017-Dec-12 13:00N 27°56' W 082°26'0 0.0
2017-Dec-12 12:30N 27°56' W 082°26'0 0.0
2017-Dec-12 12:00N 27°56' W 082°26'0 0.0
2017-Dec-12 11:30N 27°56' W 082°26'0 0.0
2017-Dec-12 11:00N 27°56' W 082°26'0 0.0
2017-Dec-12 10:30N 27°56' W 082°26'0 0.0
2017-Dec-12 10:00N 27°56' W 082°26'0 0.0
2017-Dec-12 09:30N 27°56' W 082°26'0 0.0
2017-Dec-12 09:00N 27°56' W 082°26'0 0.0
2017-Dec-12 08:30N 27°56' W 082°26'0 0.0
2017-Dec-12 08:00N 27°56' W 082°26'0 0.0
2017-Dec-12 07:30N 27°56' W 082°26'0 0.0
2017-Dec-12 07:00N 27°56' W 082°26'0 0.0
2017-Dec-12 06:30N 27°56' W 082°26'0 0.0
2017-Dec-12 06:00N 27°56' W 082°26'0 0.0
2017-Dec-12 05:30N 27°56' W 082°26'0 0.0
2017-Dec-12 05:00N 27°56' W 082°26'0 0.0
2017-Dec-12 04:30N 27°56' W 082°26'1 2.2
2017-Dec-12 04:00N 27°55' W 082°27'0 0.1
2017-Dec-12 03:30N 27°55' W 082°27'1 1.4
2017-Dec-12 03:00N 27°54' W 082°26'1 1.2
2017-Dec-12 02:30N 27°54' W 082°26'0 0.0
2017-Dec-12 02:00N 27°54' W 082°26'0 0.0
2017-Dec-12 01:30N 27°54' W 082°26'0 0.0
2017-Dec-12 01:00N 27°54' W 082°26'0 0.0
2017-Dec-12 00:30N 27°54' W 082°26'2 4.2
2017-Dec-12 00:00N 27°52' W 082°27'5 9.9
2017-Dec-11 23:30N 27°48' W 082°29'6 1.3
2017-Dec-11 19:08N 27°43' W 082°32'211.0
2017-Dec-11 18:59N 27°45' W 082°32'5 9.5
2017-Dec-11 18:30N 27°48' W 082°28'5 9.9
2017-Dec-11 18:00N 27°53' W 082°27'2 3.7
2017-Dec-11 17:30N 27°54' W 082°26'0 0.0
2017-Dec-11 17:00N 27°54' W 082°26'0 0.0
2017-Dec-11 16:30N 27°54' W 082°26'0 0.0
2017-Dec-11 16:00N 27°54' W 082°26'1 2.2
2017-Dec-11 15:30N 27°55' W 082°27'0 0.0
2017-Dec-11 15:00N 27°55' W 082°27'2 4.7
2017-Dec-11 14:30N 27°53' W 082°26'2 4.9
2017-Dec-11 14:00N 27°51' W 082°24'1 1.8
2017-Dec-11 13:30N 27°51' W 082°23'3 5.5
2017-Dec-11 13:00N 27°52' W 082°27'4 7.0
2017-Dec-11 12:30N 27°55' W 082°25'0 0.1
2017-Dec-11 12:00N 27°55' W 082°25'3 5.2
2017-Dec-11 11:30N 27°53' W 082°26'4 8.3
2017-Dec-11 11:00N 27°49' W 082°27'2 2.9
2017-Dec-11 10:22N 27°48' W 082°25'1 2.8
2017-Dec-11 10:00N 27°49' W 082°26'610.8
2017-Dec-11 09:29N 27°47' W 082°32'4 7.6
2017-Dec-11 09:00N 27°50' W 082°34'1 3.0
2017-Dec-11 08:30N 27°52' W 082°33'0 0.0
2017-Dec-11 08:00N 27°52' W 082°33'0 0.0
2017-Dec-11 07:30N 27°52' W 082°33'0 0.0
2017-Dec-11 07:00N 27°52' W 082°33'0 0.0
2017-Dec-11 06:30N 27°52' W 082°33'0 0.0
2017-Dec-11 06:00N 27°52' W 082°33'0 0.0
2017-Dec-11 05:30N 27°52' W 082°33'0 0.0
2017-Dec-11 05:00N 27°52' W 082°33'0 0.0
2017-Dec-11 04:30N 27°52' W 082°33'0 0.0
2017-Dec-11 04:00N 27°52' W 082°33'0 0.0
2017-Dec-11 03:30N 27°52' W 082°33'0 0.0
2017-Dec-11 03:00N 27°52' W 082°33'0 0.0
2017-Dec-11 02:30N 27°52' W 082°33'0 0.0
2017-Dec-11 02:00N 27°52' W 082°33'0 0.0
2017-Dec-11 01:30N 27°52' W 082°33'0 0.0
2017-Dec-11 01:00N 27°52' W 082°33'0 0.0
2017-Dec-11 00:30N 27°52' W 082°33'0 0.0
2017-Dec-11 00:00N 27°52' W 082°33'0 0.0
2017-Dec-10 23:30N 27°52' W 082°33'0 0.0
2017-Dec-10 23:00N 27°52' W 082°33'0 0.0
2017-Dec-10 22:30N 27°52' W 082°33'0 0.0
2017-Dec-10 22:00N 27°52' W 082°33'0 0.0
2017-Dec-10 21:30N 27°52' W 082°33'0 0.0
2017-Dec-10 21:00N 27°52' W 082°33'0 0.0
2017-Dec-10 20:30N 27°52' W 082°33'0 0.0
2017-Dec-10 20:00N 27°52' W 082°33'0 0.0
2017-Dec-10 19:30N 27°52' W 082°33'0 0.0
2017-Dec-10 19:00N 27°52' W 082°33'0 0.0
2017-Dec-10 18:30N 27°52' W 082°33'0 0.0
2017-Dec-10 18:00N 27°52' W 082°33'0 0.0
2017-Dec-10 17:30N 27°52' W 082°33'0 0.0
2017-Dec-10 17:00N 27°52' W 082°33'0 0.0
2017-Dec-10 16:30N 27°52' W 082°33'0 0.0
2017-Dec-10 16:00N 27°52' W 082°33'0 0.0
2017-Dec-10 15:30N 27°52' W 082°33'0 0.0
2017-Dec-10 15:00N 27°52' W 082°33'0 0.0
2017-Dec-10 14:30N 27°52' W 082°33'0 0.0
2017-Dec-10 14:00N 27°52' W 082°33'0 0.9
2017-Dec-10 13:30N 27°52' W 082°33'0 0.9
2017-Dec-10 13:00N 27°52' W 082°33'0 0.1
2017-Dec-10 12:30N 27°52' W 082°33'0 0.0
2017-Dec-10 12:00N 27°52' W 082°33'0 0.0
2017-Dec-10 11:30N 27°52' W 082°33'0 0.0
2017-Dec-10 11:00N 27°52' W 082°33'0 0.0
2017-Dec-10 10:31N 27°52' W 082°33'4 8.4
2017-Dec-10 09:59N 27°47' W 082°33'511.0
2017-Dec-10 09:30N 27°48' W 082°27'510.7
2017-Dec-10 09:00N 27°54' W 082°26'3 6.5
2017-Dec-10 08:30N 27°57' W 082°27'0 0.1
2017-Dec-10 08:01N 27°57' W 082°27'1 1.8
2017-Dec-10 07:31N 27°56' W 082°27'2 3.8
2017-Dec-10 07:00N 27°54' W 082°26'1 1.7
2017-Dec-10 06:30N 27°53' W 082°26'2 4.8
2017-Dec-10 06:00N 27°56' W 082°27'1 1.9
2017-Dec-10 05:30N 27°56' W 082°27'0 0.0
2017-Dec-10 05:00N 27°56' W 082°27'0 0.0
2017-Dec-10 04:30N 27°56' W 082°27'0 0.0
2017-Dec-10 04:00N 27°56' W 082°27'0 0.0
2017-Dec-10 03:30N 27°56' W 082°27'0 0.0
2017-Dec-10 03:00N 27°56' W 082°27'0 0.0
2017-Dec-10 02:30N 27°56' W 082°27'1 2.6
2017-Dec-10 02:00N 27°55' W 082°27'0 0.1
2017-Dec-10 01:30N 27°55' W 082°27'1 2.3
2017-Dec-10 01:00N 27°54' W 082°26'1 2.3
2017-Dec-10 00:30N 27°53' W 082°27'4 7.4
2017-Dec-10 00:00N 27°49' W 082°27'510.6
2017-Dec-09 23:30N 27°47' W 082°33'4 8.1
2017-Dec-09 23:00N 27°51' W 082°33'1 1.7
2017-Dec-09 22:30N 27°52' W 082°33'0 0.0
2017-Dec-09 22:00N 27°52' W 082°33'0 0.0
2017-Dec-09 21:30N 27°52' W 082°33'0 0.0
2017-Dec-09 21:00N 27°52' W 082°33'0 0.0
2017-Dec-09 20:30N 27°52' W 082°33'0 0.0
2017-Dec-09 20:00N 27°52' W 082°33'1 1.2
2017-Dec-09 19:30N 27°51' W 082°33'1 1.3
2017-Dec-09 19:00N 27°52' W 082°33'0 0.0
2017-Dec-09 18:30N 27°52' W 082°33'3 6.8
2017-Dec-09 18:01N 27°49' W 082°34'4 8.8
2017-Dec-09 17:30N 27°48' W 082°29'510.1
2017-Dec-09 17:00N 27°52' W 082°27'3 5.9
2017-Dec-09 16:30N 27°55' W 082°27'1 2.1
2017-Dec-09 16:00N 27°54' W 082°26'1 1.2
2017-Dec-09 15:31N 27°54' W 082°25'1 2.8
2017-Dec-09 15:00N 27°54' W 082°26'1 1.5
2017-Dec-09 14:30N 27°54' W 082°26'1 1.6
2017-Dec-09 14:00N 27°55' W 082°26'0 0.0
2017-Dec-09 13:30N 27°55' W 082°26'0 0.3
2017-Dec-09 13:00N 27°55' W 082°26'1 1.8
2017-Dec-09 12:30N 27°54' W 082°26'2 3.2
2017-Dec-09 12:01N 27°53' W 082°26'1 1.6
2017-Dec-09 11:30N 27°54' W 082°26'2 5.0
2017-Dec-09 11:00N 27°56' W 082°26'0 0.0
2017-Dec-09 10:30N 27°56' W 082°26'0 0.0
2017-Dec-09 10:00N 27°56' W 082°26'0 0.0
2017-Dec-09 09:30N 27°56' W 082°26'0 0.0
2017-Dec-09 09:00N 27°56' W 082°26'0 0.0
2017-Dec-09 08:30N 27°56' W 082°26'0 0.0
2017-Dec-09 08:00N 27°56' W 082°26'0 0.0
2017-Dec-09 07:30N 27°56' W 082°26'0 0.0
2017-Dec-09 07:00N 27°56' W 082°26'0 0.0
2017-Dec-09 06:30N 27°56' W 082°26'0 0.0
2017-Dec-09 06:00N 27°56' W 082°26'0 0.0
2017-Dec-09 05:30N 27°56' W 082°26'0 0.0
2017-Dec-09 05:00N 27°56' W 082°26'0 0.0
2017-Dec-09 04:30N 27°56' W 082°26'0 0.0
2017-Dec-09 04:00N 27°56' W 082°26'0 0.0
2017-Dec-09 03:30N 27°56' W 082°26'0 0.0
2017-Dec-09 03:00N 27°56' W 082°26'0 0.0
2017-Dec-09 02:30N 27°56' W 082°26'0 0.0
2017-Dec-09 02:00N 27°56' W 082°26'0 0.0
2017-Dec-09 01:30N 27°56' W 082°26'0 0.0
2017-Dec-09 01:00N 27°56' W 082°26'0 0.0
2017-Dec-09 00:30N 27°56' W 082°26'1 2.1
2017-Dec-09 00:00N 27°55' W 082°27'2 3.2
2017-Dec-08 23:31N 27°57' W 082°27'0 0.1
2017-Dec-08 23:00N 27°57' W 082°27'0 0.0
2017-Dec-08 22:30N 27°57' W 082°27'0 0.1
2017-Dec-08 22:00N 27°57' W 082°27'0 0.0
2017-Dec-08 21:30N 27°57' W 082°27'2 4.1
2017-Dec-08 21:00N 27°55' W 082°27'611.9
2017-Dec-08 20:29N 27°49' W 082°27'611.9
2017-Dec-08 19:59N 27°47' W 082°34'4 9.2
2017-Dec-08 19:30N 27°52' W 082°33'0 0.3
2017-Dec-08 18:59N 27°52' W 082°33'1 2.4
2017-Dec-08 18:30N 27°51' W 082°34'3 6.8
2017-Dec-08 18:01N 27°47' W 082°34'4 8.9
2017-Dec-08 17:30N 27°48' W 082°29'510.5
2017-Dec-08 17:00N 27°53' W 082°26'2 4.2
2017-Dec-08 16:30N 27°55' W 082°27'0 0.2
2017-Dec-08 16:00N 27°55' W 082°27'1 1.7
2017-Dec-08 15:30N 27°55' W 082°26'1 2.2
2017-Dec-08 15:00N 27°56' W 082°26'0 0.0
2017-Dec-08 14:30N 27°56' W 082°26'0 0.0
2017-Dec-08 14:00N 27°56' W 082°26'0 0.0
2017-Dec-08 13:30N 27°56' W 082°26'0 0.0
2017-Dec-08 13:00N 27°56' W 082°26'0 0.0
2017-Dec-08 12:30N 27°56' W 082°26'0 0.0
2017-Dec-08 12:00N 27°56' W 082°26'0 0.0
2017-Dec-08 11:30N 27°56' W 082°26'0 0.0
2017-Dec-08 11:00N 27°56' W 082°26'0 0.0
2017-Dec-08 10:30N 27°56' W 082°26'0 0.0
2017-Dec-08 10:00N 27°56' W 082°26'0 0.0
2017-Dec-08 09:30N 27°56' W 082°26'0 0.0
2017-Dec-08 09:00N 27°56' W 082°26'0 0.0
2017-Dec-08 08:30N 27°56' W 082°26'0 0.0
2017-Dec-08 08:00N 27°56' W 082°26'0 0.0
2017-Dec-08 07:30N 27°56' W 082°26'2 4.2
2017-Dec-08 07:00N 27°54' W 082°25'0 0.0
2017-Dec-08 06:30N 27°54' W 082°25'0 0.3
2017-Dec-08 06:01N 27°54' W 082°25'1 2.9
2017-Dec-08 05:30N 27°54' W 082°26'510.7
2017-Dec-08 05:00N 27°48' W 082°28'5 9.8
2017-Dec-08 04:30N 27°45' W 082°32'7 9.0
2017-Dec-08 03:45N 27°39' W 082°35'  

Dump ship's entire track history